Time;durP1;ratioP1;P1;durP2;ratioP2;P2;SDS_P1;SDS_P2;PMS_P1;PMS_P2;Temp;Humidity;BMP_temperature;BMP_pressure;BME280_temperature;BME280_humidity;BME280_pressure;Samples;Min_cycle;Max_cycle;Signal;HPM_P1;HPM_P2
2023/05/04 00:01:31;;;;;;;;;;;18.80;87.00;;;;;;5116243;28;19947;-63
2023/05/04 00:03:56;;;;;;;;;;;18.90;87.10;;;;;;5115061;28;19997;-63
2023/05/04 00:06:22;;;;;;;;;;;18.80;87.00;;;;;;5115789;28;20386;-63
2023/05/04 00:08:47;;;;;;;;;;;18.90;87.10;;;;;;5115564;28;19966;-63
2023/05/04 00:11:13;;;;;;;;;;;18.90;87.00;;;;;;5114516;28;19908;-63
2023/05/04 00:13:38;;;;;;;;;;;18.90;87.00;;;;;;5114112;28;20251;-63
2023/05/04 00:16:04;;;;;;;;;;;18.90;87.00;;;;;;5115702;28;20382;-63
2023/05/04 00:18:29;;;;;;;;;;;18.80;87.00;;;;;;5115708;28;19915;-62
2023/05/04 00:20:55;;;;;;;;;;;18.90;87.00;;;;;;5115618;28;20274;-63
2023/05/04 00:23:20;;;;;;;;;;;18.90;87.00;;;;;;5114840;27;20309;-63
2023/05/04 00:25:46;;;;;;;;;;;18.80;87.00;;;;;;5115364;28;19959;-63
2023/05/04 00:28:11;;;;;;;;;;;18.80;86.90;;;;;;5115207;28;19912;-62
2023/05/04 00:30:37;;;;;;;;;;;18.90;87.00;;;;;;5115776;28;20329;-62
2023/05/04 00:33:02;;;;;;;;;;;18.80;86.90;;;;;;5114878;28;19915;-61
2023/05/04 00:35:30;;;;;;;;;;;18.90;87.00;;;;;;5115012;28;20007;-63
2023/05/04 00:37:56;;;;;;;;;;;18.80;86.90;;;;;;5115259;28;19907;-62
2023/05/04 00:40:21;;;;;;;;;;;18.90;87.00;;;;;;5115196;28;19957;-63
2023/05/04 00:42:47;;;;;;;;;;;18.80;87.00;;;;;;5114821;28;20240;-62
2023/05/04 00:45:13;;;;;;;;;;;18.80;87.00;;;;;;5114412;28;19915;-63
2023/05/04 00:47:39;;;;;;;;;;;18.80;87.00;;;;;;5114773;28;19923;-63
2023/05/04 00:50:05;;;;;;;;;;;18.80;87.00;;;;;;5114783;28;19941;-63
2023/05/04 00:52:31;;;;;;;;;;;18.80;87.00;;;;;;5114486;27;20007;-62
2023/05/04 00:54:56;;;;;;;;;;;18.80;87.00;;;;;;5115039;28;19930;-62
2023/05/04 00:57:22;;;;;;;;;;;18.90;87.00;;;;;;5114968;28;19908;-62
2023/05/04 00:59:47;;;;;;;;;;;18.80;86.90;;;;;;5114659;28;19908;-62
2023/05/04 01:02:13;;;;;;;;;;;18.90;87.00;;;;;;5113849;27;19912;-62
2023/05/04 01:04:38;;;;;;;;;;;18.90;87.00;;;;;;5114762;28;20002;-62
2023/05/04 01:07:07;;;;;;;;;;;18.90;87.00;;;;;;5114833;28;19912;-61
2023/05/04 01:09:36;;;;;;;;;;;18.90;87.00;;;;;;5115166;28;19910;-62
2023/05/04 01:12:18;;;;;;;;;;;18.90;86.90;;;;;;5114760;27;19914;-62
2023/05/04 01:14:44;;;;;;;;;;;18.90;86.90;;;;;;5114769;28;20026;-62
2023/05/04 01:17:10;;;;;;;;;;;18.90;86.90;;;;;;5114759;28;19991;-62
2023/05/04 01:19:35;;;;;;;;;;;18.90;86.90;;;;;;5113884;28;19914;-55
2023/05/04 01:22:01;;;;;;;;;;;18.90;86.90;;;;;;5114230;27;19907;-63
2023/05/04 01:24:27;;;;;;;;;;;18.90;86.90;;;;;;5113042;28;19908;-62
2023/05/04 01:26:56;;;;;;;;;;;18.90;86.90;;;;;;5113250;28;19922;-62
2023/05/04 01:29:29;;;;;;;;;;;18.90;86.90;;;;;;5114619;28;19951;-62
2023/05/04 01:31:55;;;;;;;;;;;18.90;86.90;;;;;;5113531;28;19911;-62
2023/05/04 01:34:21;;;;;;;;;;;18.90;86.90;;;;;;5114562;28;19914;-62
2023/05/04 01:36:46;;;;;;;;;;;18.90;86.90;;;;;;5114527;28;19960;-62
2023/05/04 01:39:12;;;;;;;;;;;18.90;86.90;;;;;;5114534;28;20346;-62
2023/05/04 01:41:37;;;;;;;;;;;18.90;86.90;;;;;;5112490;28;20259;-62
2023/05/04 01:44:03;;;;;;;;;;;18.90;86.90;;;;;;5114740;28;19920;-62
2023/05/04 01:46:28;;;;;;;;;;;18.90;87.40;;;;;;5115639;28;19965;-62
2023/05/04 01:48:54;;;;;;;;;;;18.90;86.90;;;;;;5118567;28;20389;-63
2023/05/04 01:51:20;;;;;;;;;;;18.90;86.90;;;;;;5116634;27;19911;-62
2023/05/04 01:53:45;;;;;;;;;;;18.90;86.80;;;;;;5118554;28;19973;-62
2023/05/04 01:56:11;;;;;;;;;;;18.90;86.80;;;;;;5118437;28;20354;-62
2023/05/04 01:58:36;;;;;;;;;;;18.90;86.90;;;;;;5117175;28;20255;-62
2023/05/04 02:01:01;;;;;;;;;;;18.90;86.80;;;;;;5117664;27;19999;-62
2023/05/04 02:03:27;;;;;;;;;;;18.90;86.80;;;;;;5118060;28;19912;-62
2023/05/04 02:05:53;;;;;;;;;;;18.90;86.80;;;;;;5118235;28;19915;-62
2023/05/04 02:08:18;;;;;;;;;;;18.90;86.80;;;;;;5118524;28;19969;-62
2023/05/04 02:10:44;;;;;;;;;;;18.90;86.80;;;;;;5116059;28;19916;-62
2023/05/04 02:13:09;;;;;;;;;;;18.90;86.80;;;;;;5117816;28;20386;-61
2023/05/04 02:15:34;;;;;;;;;;;18.90;86.80;;;;;;5118083;28;19908;-62
2023/05/04 02:18:00;;;;;;;;;;;18.90;86.80;;;;;;5116844;28;19908;-62
2023/05/04 02:20:26;;;;;;;;;;;18.90;86.80;;;;;;5118006;28;19908;-62
2023/05/04 02:22:51;;;;;;;;;;;18.90;86.80;;;;;;5115890;27;20278;-62
2023/05/04 02:25:17;;;;;;;;;;;18.90;86.80;;;;;;5117770;28;19911;-62
2023/05/04 02:27:42;;;;;;;;;;;18.90;86.80;;;;;;5118088;28;19934;-62
2023/05/04 02:30:08;;;;;;;;;;;18.90;86.80;;;;;;5117727;28;20008;-61
2023/05/04 02:32:33;;;;;;;;;;;18.90;86.80;;;;;;5115506;27;19919;-62
2023/05/04 02:34:59;;;;;;;;;;;18.90;86.80;;;;;;5114509;27;19912;-62
2023/05/04 02:37:24;;;;;;;;;;;18.90;86.90;;;;;;5117656;28;20314;-62
2023/05/04 02:39:49;;;;;;;;;;;18.90;86.80;;;;;;5117605;28;19908;-62
2023/05/04 02:42:15;;;;;;;;;;;18.90;86.80;;;;;;5116746;27;19911;-62
2023/05/04 02:44:41;;;;;;;;;;;18.90;86.80;;;;;;5117617;28;20282;-62
2023/05/04 02:47:06;;;;;;;;;;;18.90;86.80;;;;;;5117173;28;19916;-62
2023/05/04 02:49:32;;;;;;;;;;;18.90;86.80;;;;;;5117387;28;19911;-63
2023/05/04 02:51:57;;;;;;;;;;;18.90;86.80;;;;;;5116915;27;19918;-63
2023/05/04 02:54:22;;;;;;;;;;;18.90;86.80;;;;;;5117103;28;20362;-62
2023/05/04 02:56:48;;;;;;;;;;;18.90;86.80;;;;;;5117048;28;19912;-62
2023/05/04 02:59:13;;;;;;;;;;;18.90;86.80;;;;;;5117266;28;19914;-62
2023/05/04 03:01:39;;;;;;;;;;;18.90;86.80;;;;;;5116383;28;20375;-62
2023/05/04 03:04:05;;;;;;;;;;;18.90;86.70;;;;;;5117431;28;19908;-62
2023/05/04 03:06:31;;;;;;;;;;;18.90;86.70;;;;;;5117093;28;19963;-62
2023/05/04 03:08:56;;;;;;;;;;;18.90;86.70;;;;;;5116718;28;19937;-62
2023/05/04 03:11:22;;;;;;;;;;;18.90;86.70;;;;;;5116099;27;19914;-62
2023/05/04 03:13:47;;;;;;;;;;;18.90;86.70;;;;;;5116638;28;19915;-62
2023/05/04 03:16:12;;;;;;;;;;;18.90;86.70;;;;;;5116405;27;19908;-62
2023/05/04 03:18:38;;;;;;;;;;;18.90;86.80;;;;;;5116592;28;19959;-61
2023/05/04 03:21:03;;;;;;;;;;;18.90;86.80;;;;;;5117201;28;19954;-62
2023/05/04 03:23:29;;;;;;;;;;;18.90;86.80;;;;;;5115987;27;19918;-62
2023/05/04 03:25:55;;;;;;;;;;;18.90;86.80;;;;;;5116686;28;19912;-62
2023/05/04 03:28:20;;;;;;;;;;;18.90;86.80;;;;;;5116634;28;19916;-63
2023/05/04 03:30:46;;;;;;;;;;;18.90;86.80;;;;;;5116575;28;19960;-62
2023/05/04 03:33:12;;;;;;;;;;;18.90;86.80;;;;;;5115459;28;20010;-62
2023/05/04 03:35:37;;;;;;;;;;;18.90;86.80;;;;;;5114980;28;19950;-61
2023/05/04 03:38:05;;;;;;;;;;;18.90;86.80;;;;;;5116781;28;19908;-62
2023/05/04 03:40:31;;;;;;;;;;;18.90;86.80;;;;;;5116200;28;19908;-62
2023/05/04 03:42:56;;;;;;;;;;;18.90;86.80;;;;;;5115439;27;20381;-62
2023/05/04 03:45:22;;;;;;;;;;;18.90;86.80;;;;;;5116247;28;19919;-62
2023/05/04 03:47:47;;;;;;;;;;;18.90;86.80;;;;;;5116309;28;19911;-62
2023/05/04 03:50:13;;;;;;;;;;;18.90;86.70;;;;;;5114041;27;19930;-61
2023/05/04 03:52:38;;;;;;;;;;;18.90;86.70;;;;;;5116125;27;20002;-62
2023/05/04 03:55:04;;;;;;;;;;;18.90;86.70;;;;;;5114851;28;19908;-62
2023/05/04 03:57:30;;;;;;;;;;;18.90;86.70;;;;;;5115744;28;19908;-62
2023/05/04 03:59:55;;;;;;;;;;;18.90;86.70;;;;;;5115743;28;19908;-62
2023/05/04 04:02:21;;;;;;;;;;;18.90;86.70;;;;;;5115176;28;19911;-62
2023/05/04 04:04:46;;;;;;;;;;;18.90;86.70;;;;;;5115823;28;19912;-63
2023/05/04 04:07:12;;;;;;;;;;;18.90;86.70;;;;;;5115550;28;19959;-62
2023/05/04 04:09:37;;;;;;;;;;;18.90;86.70;;;;;;5114770;27;19910;-61
2023/05/04 04:12:02;;;;;;;;;;;18.80;86.70;;;;;;5114532;28;19912;-62
2023/05/04 04:14:28;;;;;;;;;;;18.90;86.70;;;;;;5115685;28;20270;-62
2023/05/04 04:16:53;;;;;;;;;;;18.80;86.70;;;;;;5115326;28;19908;-62
2023/05/04 04:19:19;;;;;;;;;;;18.90;86.70;;;;;;5115542;28;20045;-62
2023/05/04 04:21:44;;;;;;;;;;;18.90;86.70;;;;;;5115126;28;19912;-62
2023/05/04 04:24:10;;;;;;;;;;;18.90;86.70;;;;;;5115119;28;20389;-62
2023/05/04 04:26:35;;;;;;;;;;;18.90;86.70;;;;;;5114210;28;19912;-62
2023/05/04 04:29:01;;;;;;;;;;;18.90;86.70;;;;;;5115342;27;20358;-63
2023/05/04 04:31:26;;;;;;;;;;;18.90;86.70;;;;;;5114930;28;20290;-62
2023/05/04 04:33:52;;;;;;;;;;;18.90;86.70;;;;;;5112632;27;20369;-62
2023/05/04 04:36:18;;;;;;;;;;;18.90;86.70;;;;;;5115543;28;19907;-62
2023/05/04 04:38:44;;;;;;;;;;;18.90;86.60;;;;;;5113738;28;19908;-62
2023/05/04 04:41:09;;;;;;;;;;;18.90;86.60;;;;;;5115074;28;19916;-61
2023/05/04 04:43:35;;;;;;;;;;;18.90;86.60;;;;;;5113911;27;19920;-62
2023/05/04 04:46:01;;;;;;;;;;;18.90;86.60;;;;;;5114943;28;19974;-62
2023/05/04 04:48:26;;;;;;;;;;;18.90;86.60;;;;;;5114752;28;19919;-62
2023/05/04 04:50:52;;;;;;;;;;;18.90;86.60;;;;;;5113945;28;19935;-62
2023/05/04 04:53:18;;;;;;;;;;;18.90;86.50;;;;;;5114832;28;19957;-62
2023/05/04 04:55:43;;;;;;;;;;;18.90;86.50;;;;;;5114617;28;19915;-62
2023/05/04 04:58:09;;;;;;;;;;;18.90;86.50;;;;;;5114356;28;19911;-62
2023/05/04 05:00:34;;;;;;;;;;;18.90;86.60;;;;;;5113919;28;20344;-62
2023/05/04 05:03:00;;;;;;;;;;;18.90;86.60;;;;;;5115111;28;20003;-62
2023/05/04 05:05:26;;;;;;;;;;;18.90;86.60;;;;;;5114417;28;19959;-62
2023/05/04 05:07:51;;;;;;;;;;;18.90;86.60;;;;;;5114522;28;19922;-62
2023/05/04 05:10:17;;;;;;;;;;;18.90;86.60;;;;;;5114702;28;20335;-61
2023/05/04 05:12:43;;;;;;;;;;;18.90;87.20;;;;;;5111898;28;19912;-62
2023/05/04 05:15:08;;;;;;;;;;;18.90;86.70;;;;;;5114468;28;19965;-61
2023/05/04 05:17:36;;;;;;;;;;;18.90;86.70;;;;;;5113010;28;20010;-62
2023/05/04 05:20:02;;;;;;;;;;;18.90;86.70;;;;;;5114274;28;19907;-62
2023/05/04 05:22:28;;;;;;;;;;;18.90;86.70;;;;;;5112670;28;20275;-62
2023/05/04 05:24:53;;;;;;;;;;;18.90;86.70;;;;;;5114319;28;19908;-62
2023/05/04 05:27:19;;;;;;;;;;;18.90;86.70;;;;;;5114272;28;19987;-62
2023/05/04 05:29:44;;;;;;;;;;;18.90;86.70;;;;;;5113748;28;19915;-62
2023/05/04 05:32:10;;;;;;;;;;;18.90;86.70;;;;;;5112960;28;20354;-61
2023/05/04 05:34:37;;;;;;;;;;;18.90;86.70;;;;;;5113920;28;19961;-62
2023/05/04 05:37:03;;;;;;;;;;;18.90;86.70;;;;;;5113948;28;19908;-62
2023/05/04 05:39:29;;;;;;;;;;;18.90;86.70;;;;;;5113881;28;20006;-62
2023/05/04 05:41:56;;;;;;;;;;;18.90;86.80;;;;;;5113654;28;19933;-61
2023/05/04 05:44:21;;;;;;;;;;;18.80;86.70;;;;;;5112650;28;19920;-62
2023/05/04 05:46:47;;;;;;;;;;;18.90;86.80;;;;;;5112502;28;20320;-62
2023/05/04 05:49:12;;;;;;;;;;;18.80;86.70;;;;;;5113692;28;20279;-61
2023/05/04 05:51:38;;;;;;;;;;;18.80;86.70;;;;;;5113423;28;20388;-62
2023/05/04 05:54:03;;;;;;;;;;;18.80;86.70;;;;;;5113646;28;19961;-62
2023/05/04 05:56:29;;;;;;;;;;;18.90;86.80;;;;;;5113615;28;19912;-62
2023/05/04 05:58:54;;;;;;;;;;;18.90;86.80;;;;;;5113885;28;19930;-62
2023/05/04 06:01:20;;;;;;;;;;;18.80;86.70;;;;;;5113864;28;19914;-62
2023/05/04 06:03:45;;;;;;;;;;;18.80;86.70;;;;;;5113680;28;19908;-62
2023/05/04 06:06:11;;;;;;;;;;;18.80;86.70;;;;;;5112276;28;19916;-61
2023/05/04 06:08:36;;;;;;;;;;;18.80;86.70;;;;;;5113923;28;19915;-62
2023/05/04 06:11:02;;;;;;;;;;;18.80;86.70;;;;;;5113973;28;20260;-62
2023/05/04 06:13:27;;;;;;;;;;;18.80;87.30;;;;;;5113730;28;19907;-62
2023/05/04 06:15:53;;;;;;;;;;;18.80;86.70;;;;;;5113428;28;19908;-62
2023/05/04 06:18:19;;;;;;;;;;;18.80;86.80;;;;;;5113801;28;20307;-62
2023/05/04 06:20:45;;;;;;;;;;;18.80;86.80;;;;;;5113861;28;19908;-62
2023/05/04 06:23:10;;;;;;;;;;;18.80;86.80;;;;;;5113817;28;20347;-61
2023/05/04 06:25:36;;;;;;;;;;;18.80;86.80;;;;;;5113663;28;19918;-62
2023/05/04 06:28:02;;;;;;;;;;;18.80;86.80;;;;;;5112715;28;19955;-62
2023/05/04 06:30:28;;;;;;;;;;;18.80;86.90;;;;;;5112977;28;20010;-61
2023/05/04 06:32:53;;;;;;;;;;;18.80;86.90;;;;;;5115200;28;20033;-62
2023/05/04 06:35:19;;;;;;;;;;;18.80;86.90;;;;;;5116878;28;20239;-61
2023/05/04 06:37:44;;;;;;;;;;;18.70;86.90;;;;;;5115791;28;19947;-61
2023/05/04 06:40:10;;;;;;;;;;;18.70;86.90;;;;;;5117366;28;19912;-61
2023/05/04 06:42:36;;;;;;;;;;;18.70;87.00;;;;;;5117323;28;19994;-62
2023/05/04 06:45:02;;;;;;;;;;;18.70;87.00;;;;;;5116773;28;20274;-62
2023/05/04 06:47:27;;;;;;;;;;;18.70;87.00;;;;;;5115843;28;19915;-62
2023/05/04 06:49:53;;;;;;;;;;;18.70;87.00;;;;;;5115425;28;20376;-61
2023/05/04 06:52:18;;;;;;;;;;;18.70;87.00;;;;;;5116871;28;19977;-62
2023/05/04 06:54:44;;;;;;;;;;;18.60;87.00;;;;;;5114535;28;19916;-62
2023/05/04 06:57:09;;;;;;;;;;;18.60;87.00;;;;;;5116544;28;19908;-57
2023/05/04 06:59:35;;;;;;;;;;;18.70;87.20;;;;;;5116428;27;20006;-62
2023/05/04 07:02:00;;;;;;;;;;;18.60;87.10;;;;;;5116880;28;20443;-62
2023/05/04 07:04:26;;;;;;;;;;;18.60;87.10;;;;;;5116812;27;20271;-63
2023/05/04 07:06:51;;;;;;;;;;;18.60;87.10;;;;;;5116698;28;20384;-62
2023/05/04 07:09:18;;;;;;;;;;;18.60;87.20;;;;;;5115561;28;20263;-62
2023/05/04 07:11:43;;;;;;;;;;;18.60;87.20;;;;;;5116566;28;19907;-61
2023/05/04 07:14:10;;;;;;;;;;;18.60;87.20;;;;;;5116818;28;20329;-62
2023/05/04 07:16:35;;;;;;;;;;;18.60;87.20;;;;;;5116298;28;20381;-62
2023/05/04 07:19:01;;;;;;;;;;;18.60;87.20;;;;;;5115521;28;19912;-62
2023/05/04 07:21:27;;;;;;;;;;;18.60;87.30;;;;;;5116348;28;19908;-62
2023/05/04 07:23:52;;;;;;;;;;;18.60;87.30;;;;;;5116138;28;19998;-62
2023/05/04 07:26:17;;;;;;;;;;;18.60;87.30;;;;;;5116492;28;20362;-61
2023/05/04 07:28:43;;;;;;;;;;;18.60;87.40;;;;;;5115387;27;19922;-61
2023/05/04 07:31:11;;;;;;;;;;;18.60;87.40;;;;;;5116220;28;20002;-61
2023/05/04 07:33:37;;;;;;;;;;;18.60;87.40;;;;;;5116459;28;19908;-61
2023/05/04 07:36:02;;;;;;;;;;;18.60;87.40;;;;;;5116291;28;20247;-61
2023/05/04 07:38:28;;;;;;;;;;;18.50;87.30;;;;;;5115963;28;19912;-61
2023/05/04 07:40:54;;;;;;;;;;;18.50;87.40;;;;;;5115668;27;19908;-62
2023/05/04 07:43:19;;;;;;;;;;;18.50;87.30;;;;;;5114754;28;19920;-60
2023/05/04 07:45:45;;;;;;;;;;;18.50;87.30;;;;;;5112303;27;20383;-61
2023/05/04 07:48:10;;;;;;;;;;;18.50;87.30;;;;;;5116156;28;19915;-62
2023/05/04 07:53:39;;;;;;;;;;;18.50;87.40;;;;;;5115416;28;19919;-56
2023/05/04 07:56:11;;;;;;;;;;;18.50;87.50;;;;;;5114988;28;19912;-61
2023/05/04 07:58:37;;;;;;;;;;;18.50;87.20;;;;;;5115831;28;19908;-62
2023/05/04 08:01:03;;;;;;;;;;;18.50;87.30;;;;;;5115432;28;19908;-61
2023/05/04 08:03:29;;;;;;;;;;;18.50;87.20;;;;;;5115708;28;19923;-61
2023/05/04 08:05:55;;;;;;;;;;;18.50;87.40;;;;;;5114764;28;19912;-61
2023/05/04 08:08:20;;;;;;;;;;;18.50;87.50;;;;;;5115433;28;19915;-61
2023/05/04 08:10:46;;;;;;;;;;;18.50;87.50;;;;;;5115995;28;19908;-61
2023/05/04 08:13:11;;;;;;;;;;;18.50;87.40;;;;;;5115848;28;19908;-61
2023/05/04 08:15:37;;;;;;;;;;;18.50;87.30;;;;;;5115240;27;19912;-61
2023/05/04 08:18:03;;;;;;;;;;;18.50;87.70;;;;;;5115170;28;19919;-62
2023/05/04 08:20:28;;;;;;;;;;;18.50;87.30;;;;;;5115229;28;19912;-62
2023/05/04 08:22:54;;;;;;;;;;;18.50;87.10;;;;;;5115309;28;19951;-62
2023/05/04 08:25:21;;;;;;;;;;;18.50;87.20;;;;;;5115062;27;19918;-62
2023/05/04 08:27:46;;;;;;;;;;;18.40;87.30;;;;;;5114947;28;19916;-61
2023/05/04 08:30:12;;;;;;;;;;;18.40;87.40;;;;;;5114955;28;19995;-61
2023/05/04 08:32:37;;;;;;;;;;;18.40;87.50;;;;;;5114971;28;20362;-61
2023/05/04 08:35:03;;;;;;;;;;;18.40;87.50;;;;;;5113596;28;19908;-62
2023/05/04 08:37:29;;;;;;;;;;;18.40;87.50;;;;;;5112405;27;20007;-61
2023/05/04 08:39:55;;;;;;;;;;;18.40;87.50;;;;;;5113539;28;19964;-61
2023/05/04 08:42:30;;;;;;;;;;;18.40;87.50;;;;;;5113610;28;19945;-61
2023/05/04 08:44:56;;;;;;;;;;;18.40;87.60;;;;;;5114540;28;20282;-62
2023/05/04 08:47:22;;;;;;;;;;;18.40;87.50;;;;;;5114640;28;20377;-61
2023/05/04 08:49:48;;;;;;;;;;;18.40;87.50;;;;;;5114978;28;19961;-61
2023/05/04 08:52:14;;;;;;;;;;;18.40;87.60;;;;;;5114006;27;19997;-60
2023/05/04 08:54:42;;;;;;;;;;;18.40;87.60;;;;;;5114836;28;20242;-61
2023/05/04 08:57:07;;;;;;;;;;;18.40;87.60;;;;;;5114561;28;20266;-61
2023/05/04 08:59:33;;;;;;;;;;;18.40;87.30;;;;;;5114362;28;19907;-61
2023/05/04 09:01:59;;;;;;;;;;;18.40;87.50;;;;;;5114029;27;19918;-61
2023/05/04 09:04:25;;;;;;;;;;;18.40;87.60;;;;;;5114982;28;19908;-61
2023/05/04 09:06:52;;;;;;;;;;;18.40;87.60;;;;;;5114579;28;19911;-61
2023/05/04 09:09:19;;;;;;;;;;;18.40;87.60;;;;;;5114555;28;19911;-61
2023/05/04 09:11:45;;;;;;;;;;;18.40;87.70;;;;;;5114902;28;19990;-60
2023/05/04 09:14:10;;;;;;;;;;;18.30;87.60;;;;;;5112003;28;19919;-61
2023/05/04 09:16:36;;;;;;;;;;;18.30;87.60;;;;;;5114153;28;19952;-61
2023/05/04 09:19:15;;;;;;;;;;;18.30;87.40;;;;;;5114349;28;19907;-61
2023/05/04 09:21:42;;;;;;;;;;;18.30;87.50;;;;;;5113338;28;20344;-61
2023/05/04 09:24:07;;;;;;;;;;;18.30;87.60;;;;;;5113729;28;19916;-61
2023/05/04 09:26:33;;;;;;;;;;;18.30;87.40;;;;;;5114315;28;20008;-61
2023/05/04 09:29:14;;;;;;;;;;;18.30;87.20;;;;;;5113038;28;19915;-62
2023/05/04 09:31:49;;;;;;;;;;;18.30;87.30;;;;;;5114124;28;19931;-61
2023/05/04 09:34:15;;;;;;;;;;;18.30;86.90;;;;;;5112569;28;19919;-61
2023/05/04 09:36:41;;;;;;;;;;;18.30;86.20;;;;;;5113898;28;19908;-60
2023/05/04 09:39:16;;;;;;;;;;;18.30;86.40;;;;;;5112723;28;20300;-61
2023/05/04 09:41:41;;;;;;;;;;;18.30;86.50;;;;;;5114239;28;19908;-60
2023/05/04 09:44:16;;;;;;;;;;;18.30;86.80;;;;;;5113767;28;19974;-61
2023/05/04 09:46:42;;;;;;;;;;;18.30;87.10;;;;;;5113801;28;19919;-61
2023/05/04 09:49:07;;;;;;;;;;;18.20;87.10;;;;;;5113716;28;19912;-61
2023/05/04 09:51:33;;;;;;;;;;;18.20;86.70;;;;;;5114022;28;20003;-61
2023/05/04 09:54:00;;;;;;;;;;;18.20;87.00;;;;;;5113231;28;20355;-61
2023/05/04 09:56:31;;;;;;;;;;;18.20;86.80;;;;;;5113613;28;20363;-61
2023/05/04 09:58:57;;;;;;;;;;;18.20;86.80;;;;;;5113652;28;19907;-61
2023/05/04 10:01:25;;;;;;;;;;;18.20;86.90;;;;;;5114157;28;19958;-61
2023/05/04 10:03:52;;;;;;;;;;;18.20;86.90;;;;;;5113968;28;19908;-60
2023/05/04 10:06:18;;;;;;;;;;;18.20;87.00;;;;;;5113602;27;20380;-61
2023/05/04 10:08:43;;;;;;;;;;;18.20;86.90;;;;;;5117007;28;19990;-61
2023/05/04 10:11:08;;;;;;;;;;;18.20;86.80;;;;;;5117909;28;19958;-61
2023/05/04 10:13:34;;;;;;;;;;;18.20;86.80;;;;;;5117733;28;19951;-61
2023/05/04 10:16:00;;;;;;;;;;;18.10;86.90;;;;;;5117150;28;19945;-61
2023/05/04 10:18:36;;;;;;;;;;;18.20;87.10;;;;;;5117784;28;19999;-61
2023/05/04 10:21:15;;;;;;;;;;;18.10;87.10;;;;;;5117759;28;19954;-62
2023/05/04 10:23:49;;;;;;;;;;;18.10;87.20;;;;;;5117769;28;19955;-61
2023/05/04 10:26:33;;;;;;;;;;;18.10;87.20;;;;;;5116799;28;19915;-61
2023/05/04 10:29:08;;;;;;;;;;;18.10;87.20;;;;;;5117465;28;19939;-61
2023/05/04 10:31:41;;;;;;;;;;;18.10;87.10;;;;;;5117601;28;19914;-60
2023/05/04 10:34:07;;;;;;;;;;;18.10;87.00;;;;;;5116112;27;19958;-62
2023/05/04 10:36:36;;;;;;;;;;;18.10;86.80;;;;;;5117515;28;19908;-60
2023/05/04 10:39:02;;;;;;;;;;;18.10;87.00;;;;;;5117431;28;19908;-60
2023/05/04 10:41:27;;;;;;;;;;;18.10;86.90;;;;;;5117052;28;19915;-60
2023/05/04 10:44:01;;;;;;;;;;;18.10;86.80;;;;;;5116885;27;19964;-61
2023/05/04 10:46:26;;;;;;;;;;;18.00;86.50;;;;;;5117322;28;19912;-60
2023/05/04 10:48:52;;;;;;;;;;;18.10;86.70;;;;;;5116846;28;20282;-61
2023/05/04 10:51:21;;;;;;;;;;;18.10;86.80;;;;;;5115897;28;19908;-61
2023/05/04 10:53:47;;;;;;;;;;;18.00;86.50;;;;;;5116792;27;19969;-61
2023/05/04 10:56:25;;;;;;;;;;;18.00;86.90;;;;;;5116416;27;19916;-61
2023/05/04 10:58:51;;;;;;;;;;;18.00;86.80;;;;;;5116645;28;19908;-60
2023/05/04 11:01:17;;;;;;;;;;;18.00;86.70;;;;;;5116956;28;19908;-60
2023/05/04 11:03:43;;;;;;;;;;;18.00;86.10;;;;;;5116697;28;20359;-60
2023/05/04 11:06:15;;;;;;;;;;;18.00;86.40;;;;;;5149597;27;20000;-62
2023/05/04 11:08:41;;;;;;;;;;;18.00;86.20;;;;;;5116586;28;19965;-62
2023/05/04 11:11:07;;;;;;;;;;;18.00;86.50;;;;;;5115470;28;19953;-61
2023/05/04 11:13:33;;;;;;;;;;;18.00;86.60;;;;;;5116690;28;19908;-60
2023/05/04 11:15:59;;;;;;;;;;;18.00;86.70;;;;;;5114172;28;20418;-59
2023/05/04 11:18:34;;;;;;;;;;;18.00;86.80;;;;;;5115697;27;19951;-60
2023/05/04 11:20:59;;;;;;;;;;;18.00;86.80;;;;;;5116528;28;19919;-60
2023/05/04 11:23:25;;;;;;;;;;;18.00;87.00;;;;;;5115129;28;19907;-61
2023/05/04 11:25:51;;;;;;;;;;;18.00;87.20;;;;;;5115430;28;19969;-61
2023/05/04 11:28:17;;;;;;;;;;;18.00;87.20;;;;;;5116321;28;19962;-60
2023/05/04 11:30:44;;;;;;;;;;;18.00;87.10;;;;;;5115870;28;20259;-61
2023/05/04 11:33:11;;;;;;;;;;;18.00;86.90;;;;;;5115305;27;20372;-61
2023/05/04 11:35:37;;;;;;;;;;;18.00;87.10;;;;;;5115875;28;20263;-61
2023/05/04 11:38:02;;;;;;;;;;;18.00;86.90;;;;;;5116179;28;19915;-61
2023/05/04 11:40:28;;;;;;;;;;;18.00;87.00;;;;;;5116142;28;19917;-60
2023/05/04 11:42:54;;;;;;;;;;;18.00;87.00;;;;;;5114758;28;19934;-60
2023/05/04 11:45:29;;;;;;;;;;;17.90;86.90;;;;;;5115717;28;19916;-60
2023/05/04 11:47:56;;;;;;;;;;;17.90;86.80;;;;;;5115482;28;19912;-62
2023/05/04 11:50:22;;;;;;;;;;;17.90;86.70;;;;;;5114422;28;19908;-61
2023/05/04 11:52:47;;;;;;;;;;;17.90;86.30;;;;;;5115825;28;20010;-60
2023/05/04 11:55:32;;;;;;;;;;;17.90;86.30;;;;;;5114634;28;19958;-60
2023/05/04 11:58:02;;;;;;;;;;;17.90;86.70;;;;;;5114368;28;20427;-60
2023/05/04 12:00:34;;;;;;;;;;;17.90;87.00;;;;;;5115329;28;19912;-60
2023/05/04 12:03:00;;;;;;;;;;;17.90;87.10;;;;;;5116030;28;19907;-60
2023/05/04 12:05:26;;;;;;;;;;;17.90;86.90;;;;;;5114378;28;20392;-61
2023/05/04 12:07:51;;;;;;;;;;;17.90;86.90;;;;;;5115401;28;19915;-61
2023/05/04 12:10:32;;;;;;;;;;;17.90;87.10;;;;;;5115463;28;20275;-60
2023/05/04 12:12:57;;;;;;;;;;;17.90;86.90;;;;;;5114575;27;19912;-61
2023/05/04 12:15:33;;;;;;;;;;;17.90;87.10;;;;;;5114950;28;20294;-61
2023/05/04 12:17:59;;;;;;;;;;;17.90;87.10;;;;;;5115237;27;19980;-61
2023/05/04 12:20:29;;;;;;;;;;;17.90;86.90;;;;;;5115455;28;20354;-60
2023/05/04 12:22:55;;;;;;;;;;;17.90;87.20;;;;;;5114994;27;19915;-60
2023/05/04 12:25:22;;;;;;;;;;;17.90;87.10;;;;;;5114807;28;20385;-60
2023/05/04 12:27:47;;;;;;;;;;;17.90;86.90;;;;;;5114955;28;19934;-60
2023/05/04 12:30:13;;;;;;;;;;;17.90;86.90;;;;;;5114396;28;19907;-61
2023/05/04 12:32:39;;;;;;;;;;;17.90;87.10;;;;;;5114088;27;19988;-61
2023/05/04 12:35:05;;;;;;;;;;;17.90;86.80;;;;;;5115117;28;19919;-61
2023/05/04 12:37:30;;;;;;;;;;;17.90;87.10;;;;;;5115028;28;20270;-61
2023/05/04 12:39:56;;;;;;;;;;;17.90;86.90;;;;;;5115014;28;19908;-61
2023/05/04 12:42:21;;;;;;;;;;;17.90;87.00;;;;;;5114173;28;19916;-60
2023/05/04 12:44:46;;;;;;;;;;;17.90;87.00;;;;;;5114881;27;19908;-61
2023/05/04 12:47:13;;;;;;;;;;;17.90;87.30;;;;;;5114708;28;19973;-61
2023/05/04 12:49:38;;;;;;;;;;;17.90;87.40;;;;;;5114381;28;20370;-61
2023/05/04 12:52:04;;;;;;;;;;;17.90;87.60;;;;;;5114836;28;19943;-61
2023/05/04 12:54:30;;;;;;;;;;;17.90;87.60;;;;;;5112456;28;19912;-61
2023/05/04 12:56:56;;;;;;;;;;;17.90;87.70;;;;;;5114561;28;19907;-61
2023/05/04 12:59:23;;;;;;;;;;;17.90;87.60;;;;;;5113382;28;19908;-61
2023/05/04 13:01:49;;;;;;;;;;;17.90;87.50;;;;;;5114170;28;19915;-60
2023/05/04 13:04:15;;;;;;;;;;;17.90;87.60;;;;;;5113830;28;19912;-60
2023/05/04 13:06:41;;;;;;;;;;;17.90;87.60;;;;;;5112650;28;19912;-61
2023/05/04 13:09:07;;;;;;;;;;;17.90;87.60;;;;;;5113887;28;20312;-61
2023/05/04 13:11:33;;;;;;;;;;;17.90;87.60;;;;;;5114510;28;19988;-61
2023/05/04 13:13:59;;;;;;;;;;;17.90;87.60;;;;;;5113493;28;19939;-61
2023/05/04 13:16:26;;;;;;;;;;;17.90;87.60;;;;;;5114522;28;19907;-60
2023/05/04 13:18:55;;;;;;;;;;;17.90;87.80;;;;;;5114081;28;19908;-61
2023/05/04 13:21:20;;;;;;;;;;;17.90;87.70;;;;;;5114318;28;20359;-61
2023/05/04 13:23:46;;;;;;;;;;;17.90;87.60;;;;;;5113152;28;19907;-61
2023/05/04 13:26:11;;;;;;;;;;;17.90;87.60;;;;;;5112554;28;20381;-61
2023/05/04 13:28:37;;;;;;;;;;;17.90;87.70;;;;;;5113718;28;19998;-61
2023/05/04 13:31:04;;;;;;;;;;;17.90;87.70;;;;;;5114081;28;19963;-61
2023/05/04 13:33:31;;;;;;;;;;;17.90;87.90;;;;;;5112712;28;19922;-60
2023/05/04 13:35:56;;;;;;;;;;;17.90;87.80;;;;;;5112636;28;19908;-60
2023/05/04 13:38:22;;;;;;;;;;;17.90;87.80;;;;;;5113760;28;20019;-60
2023/05/04 13:40:47;;;;;;;;;;;17.80;87.80;;;;;;5113653;28;20010;-60
2023/05/04 13:43:13;;;;;;;;;;;17.90;87.80;;;;;;5115393;27;20409;-61
2023/05/04 13:45:38;;;;;;;;;;;17.90;87.90;;;;;;5118313;28;19932;-61
2023/05/04 13:48:04;;;;;;;;;;;17.90;87.90;;;;;;5117998;28;19912;-60
2023/05/04 13:50:30;;;;;;;;;;;17.90;87.80;;;;;;5118297;28;20315;-61
2023/05/04 13:52:56;;;;;;;;;;;17.90;87.80;;;;;;5117508;27;19912;-60
2023/05/04 13:55:21;;;;;;;;;;;17.90;87.90;;;;;;5118156;28;19966;-60
2023/05/04 13:57:47;;;;;;;;;;;17.90;87.80;;;;;;5118381;28;20278;-60
2023/05/04 14:00:13;;;;;;;;;;;17.80;87.80;;;;;;5118164;28;19965;-61
2023/05/04 14:02:39;;;;;;;;;;;17.90;87.90;;;;;;5118063;28;19912;-61
2023/05/04 14:05:05;;;;;;;;;;;17.90;87.70;;;;;;5116939;28;20284;-60
2023/05/04 14:07:31;;;;;;;;;;;17.80;87.80;;;;;;5116826;28;20358;-61
2023/05/04 14:09:57;;;;;;;;;;;17.90;87.90;;;;;;5117893;28;19908;-60
2023/05/04 14:12:22;;;;;;;;;;;17.80;87.90;;;;;;5117886;28;19915;-61
2023/05/04 14:14:49;;;;;;;;;;;17.90;88.00;;;;;;5116734;28;19908;-61